Time;durP1;ratioP1;P1;durP2;ratioP2;P2;SDS_P1;SDS_P2;PMS_P1;PMS_P2;Temp;Humidity;BMP_temperature;BMP_pressure;BME280_temperature;BME280_humidity;BME280_pressure;Samples;Min_cycle;Max_cycle;Signal;HPM_P1;HPM_P2
2022/06/12 00:02:13;;;;;;;10.15;2.97;;;;;;;24.19;68.37;100570.38;4470620;32;20149;-66
2022/06/12 00:04:41;;;;;;;3.92;3.10;;;;;;;24.12;69.24;100570.88;4471176;32;20120;-66
2022/06/12 00:07:09;;;;;;;4.95;3.28;;;;;;;23.96;70.10;100571.91;4471080;32;20489;-66
2022/06/12 00:09:36;;;;;;;3.80;3.30;;;;;;;24.27;69.47;100567.19;4471214;32;20157;-66
2022/06/12 00:12:04;;;;;;;3.33;3.00;;;;;;;24.23;67.31;100569.22;4470978;32;20118;-66
2022/06/12 00:14:31;;;;;;;2.92;2.72;;;;;;;24.09;68.54;100569.25;4471103;32;20573;-66
2022/06/12 00:16:59;;;;;;;5.05;3.62;;;;;;;24.12;66.28;100568.19;4471127;32;20096;-66
2022/06/12 00:19:26;;;;;;;3.08;2.87;;;;;;;24.22;64.80;100554.03;4471165;32;20072;-66
2022/06/12 00:21:54;;;;;;;4.15;3.05;;;;;;;24.43;62.59;100551.78;4471232;32;20104;-66
2022/06/12 00:24:21;;;;;;;4.07;3.00;;;;;;;24.33;62.13;100551.47;4471134;32;20139;-66
2022/06/12 00:26:51;;;;;;;5.10;3.75;;;;;;;24.41;60.71;100547.44;4471049;32;20202;-66
2022/06/12 00:29:28;;;;;;;4.32;2.90;;;;;;;24.50;59.25;100553.09;4471265;32;20457;-66
2022/06/12 00:32:01;;;;;;;4.57;2.83;;;;;;;24.58;58.43;100549.88;4471195;32;20169;-66
2022/06/12 00:34:42;;;;;;;3.20;2.83;;;;;;;24.61;57.96;100554.19;4471147;32;20286;-66
2022/06/12 00:37:11;;;;;;;2.97;2.78;;;;;;;24.48;58.23;100548.75;4471121;32;20112;-66
2022/06/12 00:39:40;;;;;;;3.08;2.87;;;;;;;24.65;58.19;100551.19;4471107;32;20080;-66
2022/06/12 00:42:19;;;;;;;3.15;2.92;;;;;;;24.45;58.30;100546.28;4471025;32;20115;-66
2022/06/12 00:44:46;;;;;;;3.95;3.20;;;;;;;24.38;59.30;100540.38;4471024;32;20104;-66
2022/06/12 00:47:15;;;;;;;3.10;2.90;;;;;;;24.11;60.41;100547.62;4471113;32;20119;-66
2022/06/12 00:49:50;;;;;;;3.08;2.75;;;;;;;24.09;61.46;100545.87;4471013;32;20076;-66
2022/06/12 00:52:44;;;;;;;2.95;2.75;;;;;;;24.01;63.58;100542.84;4471205;32;20103;-66
2022/06/12 00:55:25;;;;;;;4.72;2.92;;;;;;;23.85;64.27;100543.00;4470771;32;20100;-66
2022/06/12 00:57:58;;;;;;;2.97;2.78;;;;;;;23.88;64.08;100543.72;4470775;32;20092;-66
2022/06/12 01:00:25;;;;;;;3.10;2.90;;;;;;;23.83;64.04;100541.34;4470783;32;20084;-66
2022/06/12 01:02:53;;;;;;;5.37;3.15;;;;;;;23.83;62.87;100542.22;4470709;32;20080;-66
2022/06/12 01:08:08;;;;;;;3.17;2.97;;;;;;;23.61;64.42;100531.06;4470891;32;20092;-66
2022/06/12 01:10:40;;;;;;;4.22;3.08;;;;;;;23.76;63.44;100538.19;4470706;32;20141;-66
2022/06/12 01:13:14;;;;;;;5.68;2.87;;;;;;;23.82;62.59;100535.09;4470228;32;20076;-66
2022/06/12 01:15:59;;;;;;;3.62;3.10;;;;;;;23.82;61.54;100534.25;4470618;32;20180;-66
2022/06/12 01:18:31;;;;;;;2.72;2.53;;;;;;;23.76;62.14;100524.72;4470734;32;20099;-66
2022/06/12 01:21:02;;;;;;;5.70;2.70;;;;;;;23.80;62.25;100528.94;4470574;32;20072;-66
2022/06/12 01:23:47;;;;;;;3.25;2.65;;;;;;;23.97;61.36;100529.69;4470630;32;20100;-66
2022/06/12 01:26:33;;;;;;;3.47;2.72;;;;;;;23.97;60.46;100527.88;4470737;32;20164;-66
2022/06/12 01:29:21;;;;;;;3.72;2.90;;;;;;;23.85;61.21;100539.41;4470622;32;20530;-66
2022/06/12 01:31:59;;;;;;;4.95;2.55;;;;;;;23.85;60.49;100534.03;4470332;32;20140;-66
2022/06/12 01:34:33;;;;;;;3.30;2.90;;;;;;;23.74;61.75;100531.16;4470490;32;20119;-66
2022/06/12 01:37:35;;;;;;;3.83;3.20;;;;;;;23.83;61.19;100535.97;4470394;32;20500;-66
2022/06/12 01:40:24;;;;;;;4.30;2.92;;;;;;;23.66;62.86;100525.41;4470577;32;20092;-66
2022/06/12 01:42:59;;;;;;;5.43;2.97;;;;;;;23.57;63.86;100535.78;4455651;32;20115;-66
2022/06/12 01:45:44;;;;;;;8.55;2.92;;;;;;;23.58;64.53;100532.13;4470520;32;20220;-66
2022/06/12 01:48:38;;;;;;;2.95;2.75;;;;;;;23.59;65.08;100523.09;4470291;32;20164;-66
2022/06/12 01:51:23;;;;;;;2.95;2.75;;;;;;;23.60;64.79;100537.41;4467081;32;20166;-66
2022/06/12 01:53:56;;;;;;;3.10;2.90;;;;;;;23.23;66.80;100528.13;4470407;32;20073;-66
2022/06/12 01:56:44;;;;;;;3.33;3.03;;;;;;;23.33;64.63;100527.44;4470391;32;20832;-66
2022/06/12 01:59:24;;;;;;;6.43;2.90;;;;;;;23.20;67.13;100530.97;4470250;32;20455;-66
2022/06/12 02:02:25;;;;;;;3.25;3.05;;;;;;;23.21;67.89;100527.31;4470440;32;20084;-66
2022/06/12 02:05:06;;;;;;;5.57;3.15;;;;;;;23.07;69.19;100526.34;4470183;32;20103;-66
2022/06/12 02:07:45;;;;;;;5.90;3.17;;;;;;;23.06;68.96;100521.94;4470291;32;20144;-66
2022/06/12 02:10:18;;;;;;;3.20;2.62;;;;;;;23.10;68.22;100515.41;4470573;32;20112;-66
2022/06/12 02:13:11;;;;;;;3.70;3.25;;;;;;;23.11;68.07;100519.00;4470192;32;20096;-66
2022/06/12 02:15:45;;;;;;;5.50;2.67;;;;;;;23.05;68.66;100522.06;4470107;32;20093;-66
2022/06/12 02:18:22;;;;;;;8.02;3.00;;;;;;;22.86;70.45;100523.16;4470256;32;20131;-66
2022/06/12 02:21:13;;;;;;;3.65;2.87;;;;;;;22.59;71.43;100509.56;4470149;32;20493;-66
2022/06/12 02:23:53;;;;;;;7.35;2.85;;;;;;;22.82;69.73;100526.94;4470003;32;20509;-66
2022/06/12 02:26:25;;;;;;;2.50;2.25;;;;;;;22.89;68.06;100520.25;4470265;32;20084;-66
2022/06/12 02:29:02;;;;;;;6.72;2.65;;;;;;;22.91;66.50;100520.19;4470089;32;20486;-66
2022/06/12 02:31:34;;;;;;;5.60;3.08;;;;;;;22.86;67.53;100531.22;4469986;32;20161;-66
2022/06/12 02:34:07;;;;;;;3.25;2.85;;;;;;;22.64;69.58;100528.06;4470144;32;20088;-66
2022/06/12 02:36:41;;;;;;;5.28;2.97;;;;;;;22.79;68.30;100537.03;4470161;32;20123;-66
2022/06/12 02:39:18;;;;;;;4.53;2.67;;;;;;;22.76;68.85;100529.19;4470025;32;20096;-66
2022/06/12 02:41:50;;;;;;;;;;;;;;;22.69;67.81;100533.19;4470204;32;20168;-66
2022/06/12 02:44:26;;;;;;;5.03;2.70;;;;;;;22.65;68.95;100528.00;4470186;32;20327;-66
2022/06/12 02:47:01;;;;;;;5.62;2.72;;;;;;;22.87;67.11;100534.75;4469995;32;20099;-66
2022/06/12 02:49:29;;;;;;;3.45;2.80;;;;;;;22.77;67.86;100539.81;4469908;32;20443;-66
2022/06/12 02:52:45;;;;;;;3.58;2.87;;;;;;;23.01;66.19;100537.50;4469865;32;20096;-66
2022/06/12 02:55:33;;;;;;;6.82;2.55;;;;;;;23.11;65.04;100533.28;4452032;32;20100;-66
2022/06/12 02:58:16;;;;;;;3.20;2.90;;;;;;;23.05;65.90;100538.19;4469949;32;20103;-66
2022/06/12 03:00:52;;;;;;;6.03;2.83;;;;;;;23.10;66.66;100536.91;4469857;32;20412;-66
2022/06/12 03:03:47;;;;;;;9.13;2.78;;;;;;;22.90;66.55;100535.44;4469647;32;20424;-66
2022/06/12 03:06:14;;;;;;;3.47;2.70;;;;;;;22.78;67.16;100530.78;4469652;32;20122;-66
2022/06/12 03:08:46;;;;;;;4.00;2.55;;;;;;;22.94;65.70;100540.66;4469821;32;20100;-66
2022/06/12 03:11:29;;;;;;;5.35;3.10;;;;;;;22.84;65.71;100537.63;4469778;32;20077;-66
2022/06/12 03:13:58;;;;;;;3.40;2.22;;;;;;;22.87;66.43;100535.63;4469682;32;20146;-66
2022/06/12 03:16:31;;;;;;;2.75;2.40;;;;;;;22.91;65.35;100539.84;4469541;32;20112;-66
2022/06/12 03:19:04;;;;;;;3.40;2.90;;;;;;;22.85;66.92;100542.91;4469616;32;20729;-66
2022/06/12 03:21:50;;;;;;;3.20;2.45;;;;;;;22.62;69.23;100548.81;4469530;32;20084;-66
2022/06/12 03:24:27;;;;;;;4.43;3.05;;;;;;;22.75;68.98;100544.41;4469408;32;20100;-66
2022/06/12 03:27:32;;;;;;;6.47;2.97;;;;;;;22.86;68.76;100550.03;4469553;32;20372;-66
2022/06/12 03:30:02;;;;;;;4.28;3.15;;;;;;;22.89;69.42;100552.50;4469436;32;20080;-66
2022/06/12 03:32:58;;;;;;;5.03;2.40;;;;;;;22.84;69.29;100549.22;4469261;32;20145;-66
2022/06/12 03:35:53;;;;;;;3.30;2.87;;;;;;;23.06;66.99;100556.03;4469763;32;20707;-66
2022/06/12 03:38:47;;;;;;;3.28;2.85;;;;;;;22.87;68.48;100557.12;4474731;32;20122;-66
2022/06/12 03:41:33;;;;;;;3.75;2.80;;;;;;;23.10;68.23;100547.66;4471672;32;20106;-66
2022/06/12 03:44:25;;;;;;;6.85;3.17;;;;;;;23.06;69.28;100556.03;4474308;32;20071;-66
2022/06/12 03:47:10;;;;;;;6.40;2.70;;;;;;;22.99;70.43;100554.66;4474648;32;20170;-66
2022/06/12 03:49:42;;;;;;;5.68;2.67;;;;;;;23.27;69.97;100559.22;4474554;32;20452;-66
2022/06/12 03:52:49;;;;;;;3.10;2.28;;;;;;;23.43;67.30;100560.00;4474304;32;20088;-66
2022/06/12 03:58:31;;;;;;;5.87;2.17;;;;;;;23.57;62.58;100559.13;4474131;32;20176;-66
2022/06/12 04:01:00;;;;;;;2.58;1.92;;;;;;;23.77;61.83;100558.75;4474170;32;20093;-66
2022/06/12 04:03:37;;;;;;;2.97;2.22;;;;;;;23.88;60.77;100568.81;4474043;32;20496;-66
2022/06/12 04:06:13;;;;;;;2.50;2.30;;;;;;;23.93;58.56;100563.16;4474065;32;20096;-66
2022/06/12 04:08:48;;;;;;;2.80;2.20;;;;;;;24.03;58.73;100564.28;4474018;32;20793;-66
2022/06/12 04:11:18;;;;;;;5.93;2.50;;;;;;;24.13;59.47;100564.53;4474108;32;20122;-66
2022/06/12 04:13:47;;;;;;;2.25;1.80;;;;;;;24.26;59.11;100563.63;4473990;32;20080;-66
2022/06/12 04:16:38;;;;;;;7.50;2.00;;;;;;;24.44;57.05;100560.72;4474017;32;20147;-66
2022/06/12 04:19:12;;;;;;;2.08;1.98;;;;;;;24.55;54.81;100571.63;4474141;32;20220;-66
2022/06/12 04:21:50;;;;;;;4.82;1.70;;;;;;;24.49;54.12;100575.59;4473920;32;20509;-66
2022/06/12 04:24:27;;;;;;;4.50;1.90;;;;;;;24.73;53.68;100572.22;4470471;32;104500;-66
2022/06/12 04:27:06;;;;;;;5.43;1.60;;;;;;;24.89;52.61;100570.19;4459130;32;20490;-66
2022/06/12 04:29:38;;;;;;;2.40;1.87;;;;;;;24.85;52.11;100568.69;4473782;32;20089;-66
2022/06/12 04:32:07;;;;;;;4.20;2.30;;;;;;;24.86;51.53;100578.50;4473750;32;20123;-66
2022/06/12 04:34:39;;;;;;;4.70;2.22;;;;;;;24.72;57.20;100576.75;4474025;32;20147;-66
2022/06/12 04:37:15;;;;;;;4.15;2.50;;;;;;;24.55;60.96;100577.00;4473807;32;20511;-66
2022/06/12 04:39:44;;;;;;;6.03;2.30;;;;;;;24.62;61.45;100586.41;4473541;32;20115;-66
2022/06/12 04:42:14;;;;;;;2.97;2.10;;;;;;;24.69;62.99;100579.63;4473879;32;20497;-66
2022/06/12 04:44:41;;;;;;;1.98;1.87;;;;;;;24.76;61.27;100580.09;4473524;32;20114;-66
2022/06/12 04:47:23;;;;;;;3.17;2.30;;;;;;;24.95;56.58;100580.56;4472292;32;20461;-66
2022/06/12 04:49:52;;;;;;;4.85;1.85;;;;;;;25.16;53.49;100588.16;4470669;32;20141;-67
2022/06/12 04:52:23;;;;;;;3.97;2.10;;;;;;;25.25;52.24;100576.75;4470630;32;20122;-66
2022/06/12 04:54:51;;;;;;;2.60;1.65;;;;;;;25.45;51.63;100575.34;4456335;32;20085;-66
2022/06/12 04:57:24;;;;;;;1.90;1.80;;;;;;;25.40;50.87;100581.03;4470720;32;20204;-66
2022/06/12 04:59:52;;;;;;;3.67;1.75;;;;;;;25.57;51.15;100581.69;4470582;32;20464;-67
2022/06/12 05:02:20;;;;;;;2.45;1.83;;;;;;;25.61;50.23;100584.06;4470578;32;20151;-66
2022/06/12 05:04:47;;;;;;;1.62;1.50;;;;;;;25.50;50.52;100579.44;4470448;32;20076;-67
2022/06/12 05:07:15;;;;;;;2.47;1.62;;;;;;;25.85;50.45;100580.59;4470408;32;20165;-67
2022/06/12 05:09:44;;;;;;;5.25;1.85;;;;;;;26.04;49.40;100588.22;4455892;32;20104;-66
2022/06/12 05:12:13;;;;;;;4.50;2.10;;;;;;;26.00;49.25;100584.88;4470658;32;20100;-66
2022/06/12 05:14:41;;;;;;;1.58;1.48;;;;;;;26.26;49.30;100582.13;4470520;32;20084;-66
2022/06/12 05:17:17;;;;;;;5.75;1.73;;;;;;;26.12;48.01;100592.09;4470547;32;20482;-67
2022/06/12 05:19:45;;;;;;;2.00;1.80;;;;;;;26.11;48.94;100587.66;4470506;32;20467;-66
2022/06/12 05:22:14;;;;;;;3.20;1.85;;;;;;;26.43;47.40;100592.50;4470523;32;20158;-66
2022/06/12 05:24:43;;;;;;;3.47;1.70;;;;;;;26.03;48.82;100595.44;4470317;32;20103;-66
2022/06/12 05:27:18;;;;;;;6.93;2.25;;;;;;;26.05;47.93;100596.22;4470558;32;20095;-66
2022/06/12 05:29:46;;;;;;;2.37;1.73;;;;;;;26.27;48.33;100600.03;4470701;32;20084;-67
2022/06/12 05:32:16;;;;;;;3.45;1.62;;;;;;;26.23;48.47;100596.69;4470212;32;20100;-66
2022/06/12 05:34:44;;;;;;;3.22;1.55;;;;;;;26.61;47.42;100601.97;4470451;32;20076;-67
2022/06/12 05:37:12;;;;;;;1.67;1.58;;;;;;;26.56;47.96;100603.28;4470256;32;20516;-66
2022/06/12 05:39:39;;;;;;;4.10;1.65;;;;;;;26.63;47.88;100612.66;4470223;32;20162;-66
2022/06/12 05:42:07;;;;;;;2.00;1.90;;;;;;;26.66;47.76;100605.19;4470304;32;20546;-66
2022/06/12 05:44:37;;;;;;;2.17;1.75;;;;;;;26.60;46.94;100604.78;4470149;32;20102;-67
2022/06/12 05:47:04;;;;;;;2.03;1.92;;;;;;;26.59;46.41;100603.91;4470308;32;20360;-66
2022/06/12 05:49:31;;;;;;;1.90;1.80;;;;;;;26.67;46.15;100606.91;4470117;32;20572;-67
2022/06/12 05:51:59;;;;;;;2.80;2.55;;;;;;;26.55;46.25;100607.84;4470074;32;20224;-67
2022/06/12 05:54:26;;;;;;;7.78;4.03;;;;;;;27.32;46.25;100610.09;4470220;32;20088;-66
2022/06/12 05:56:54;;;;;;;2.25;2.03;;;;;;;27.03;46.31;100621.31;4470038;32;20156;-66
2022/06/12 05:59:23;;;;;;;3.80;1.70;;;;;;;27.03;47.55;100613.19;4469655;32;20093;-66
2022/06/12 06:01:50;;;;;;;3.12;1.60;;;;;;;26.65;46.98;100621.53;4470117;32;20126;-66
2022/06/12 06:04:17;;;;;;;2.25;2.00;;;;;;;26.93;48.32;100623.84;4470082;32;20088;-66
2022/06/12 06:06:51;;;;;;;1.98;1.70;;;;;;;27.30;47.48;100617.47;4470143;32;20118;-66
2022/06/12 06:09:19;;;;;;;1.90;1.70;;;;;;;27.40;46.93;100626.59;4470099;32;21145;-67
2022/06/12 06:11:47;;;;;;;2.12;1.80;;;;;;;27.09;46.68;100628.06;4470067;32;20553;-67
2022/06/12 06:14:14;;;;;;;2.72;1.80;;;;;;;27.44;46.77;100625.34;4470068;32;20087;-67
2022/06/12 06:16:43;;;;;;;1.90;1.80;;;;;;;27.11;47.05;100632.41;4469972;32;20093;-67
2022/06/12 06:19:12;;;;;;;4.80;2.00;;;;;;;27.50;46.60;100630.31;4470119;32;20092;-67
2022/06/12 06:21:40;;;;;;;1.98;1.80;;;;;;;27.77;46.11;100629.09;4470064;32;20092;-67
2022/06/12 06:24:09;;;;;;;2.28;1.95;;;;;;;27.90;44.77;100626.28;4469949;32;20484;-66
2022/06/12 06:26:36;;;;;;;2.47;1.83;;;;;;;27.55;44.09;100627.22;4470169;32;20157;-66
2022/06/12 06:29:04;;;;;;;6.87;2.00;;;;;;;27.76;45.33;100628.25;4469895;32;20085;-67
2022/06/12 06:31:32;;;;;;;2.28;1.75;;;;;;;27.71;45.30;100626.87;4469829;32;20558;-67
2022/06/12 06:33:59;;;;;;;1.83;1.73;;;;;;;27.70;45.79;100622.44;4470015;32;20115;-66
2022/06/12 06:36:26;;;;;;;5.50;2.53;;;;;;;27.48;46.63;100620.56;4469892;32;20418;-66
2022/06/12 06:38:56;;;;;;;3.10;2.25;;;;;;;27.94;45.77;100616.91;4469814;32;20479;-67
2022/06/12 06:41:25;;;;;;;2.05;1.90;;;;;;;27.69;44.85;100624.28;4469888;32;20283;-67
2022/06/12 06:46:39;;;;;;;;;;;;;;;27.65;46.48;100620.09;4470171;32;20108;-67
2022/06/12 06:49:07;;;;;;;2.25;2.05;;;;;;;28.02;45.32;100623.47;4469877;32;20050;-67
2022/06/12 06:51:34;;;;;;;2.78;1.77;;;;;;;28.37;44.72;100633.22;4469719;32;20104;-66
2022/06/12 06:54:04;;;;;;;3.37;2.03;;;;;;;28.49;44.27;100625.97;4469753;32;20436;-67
2022/06/12 06:56:31;;;;;;;2.78;1.75;;;;;;;28.64;44.62;100632.81;4469784;32;20092;-67
2022/06/12 06:58:58;;;;;;;2.15;1.80;;;;;;;28.58;43.53;100630.63;4454938;32;20448;-67
2022/06/12 07:01:26;;;;;;;5.12;2.33;;;;;;;28.75;43.59;100627.34;4469843;32;20156;-67
2022/06/12 07:03:53;;;;;;;3.53;2.00;;;;;;;28.75;43.52;100623.78;4469865;32;20821;-67
2022/06/12 07:06:21;;;;;;;4.47;1.80;;;;;;;28.68;43.19;100622.56;4469277;32;20084;-67
2022/06/12 07:08:54;;;;;;;2.70;1.92;;;;;;;28.82;42.45;100620.41;4469647;32;20478;-67
2022/06/12 07:11:25;;;;;;;2.53;1.85;;;;;;;29.15;42.16;100628.53;4468283;32;20447;-66
2022/06/12 07:13:53;;;;;;;4.25;2.12;;;;;;;29.11;42.60;100624.38;4469440;32;20148;-67
2022/06/12 07:16:21;;;;;;;2.42;1.75;;;;;;;29.54;42.52;100627.81;4454909;32;20452;-67
2022/06/12 07:18:49;;;;;;;4.53;2.10;;;;;;;29.64;41.28;100630.59;4469555;32;20100;-66
2022/06/12 07:21:17;;;;;;;3.55;2.10;;;;;;;29.30;42.13;100627.25;4469448;32;20455;-66
2022/06/12 07:23:45;;;;;;;2.65;1.90;;;;;;;29.41;41.48;100618.16;4469530;32;20096;-66
2022/06/12 07:26:23;;;;;;;3.10;1.90;;;;;;;29.10;42.38;100615.38;4469440;32;20172;-67
2022/06/12 07:28:52;;;;;;;12.10;2.00;;;;;;;29.25;41.72;100619.47;4469475;32;20600;-67
2022/06/12 07:31:20;;;;;;;3.40;2.05;;;;;;;29.18;42.06;100618.28;4469214;32;20105;-66
2022/06/12 07:33:47;;;;;;;2.72;2.40;;;;;;;29.22;42.33;100608.03;4469311;32;20197;-67
2022/06/12 07:36:16;;;;;;;3.80;2.22;;;;;;;29.04;42.03;100615.91;4469134;32;20139;-67
2022/06/12 07:38:46;;;;;;;1.83;1.73;;;;;;;29.48;41.55;100613.91;4469378;32;20101;-67
2022/06/12 07:41:33;;;;;;;2.53;2.12;;;;;;;29.56;41.92;100605.94;4469066;32;20104;-67
2022/06/12 07:44:00;;;;;;;2.22;2.03;;;;;;;29.21;41.76;100603.59;4469200;32;20376;-67
2022/06/12 07:46:28;;;;;;;4.65;2.10;;;;;;;29.34;41.96;100615.12;4469058;32;20172;-67
2022/06/12 07:48:57;;;;;;;2.10;1.90;;;;;;;29.42;41.05;100609.87;4469080;32;20120;-67
2022/06/12 07:51:25;;;;;;;1.77;1.67;;;;;;;29.73;41.79;100609.94;4468919;32;20104;-67
2022/06/12 07:53:53;;;;;;;3.95;1.83;;;;;;;29.36;41.49;100615.81;4469084;32;20193;-67
2022/06/12 07:56:23;;;;;;;7.10;2.05;;;;;;;29.57;41.19;100612.22;4468958;32;20148;-67
2022/06/12 07:58:50;;;;;;;4.30;2.12;;;;;;;29.41;42.00;100613.59;4468835;32;20445;-66
2022/06/12 08:01:20;;;;;;;1.92;1.75;;;;;;;29.53;41.47;100601.62;4468846;32;20408;-66
2022/06/12 08:03:48;;;;;;;3.92;2.10;;;;;;;29.38;41.98;100616.56;4468848;32;20146;-66
2022/06/12 08:06:15;;;;;;;2.12;1.90;;;;;;;29.76;41.77;100610.50;4468698;32;20485;-67
2022/06/12 08:08:44;;;;;;;2.00;1.90;;;;;;;29.75;41.48;100611.53;4454115;32;20112;-67
2022/06/12 08:11:11;;;;;;;3.12;2.75;;;;;;;29.80;41.67;100611.09;4468864;32;20112;-67
2022/06/12 08:13:41;;;;;;;2.97;2.28;;;;;;;29.97;41.06;100605.03;4468763;32;20084;-67
2022/06/12 08:16:08;;;;;;;2.10;2.00;;;;;;;30.04;40.41;100601.72;4468710;32;20092;-67
2022/06/12 08:18:36;;;;;;;2.60;2.12;;;;;;;29.36;40.96;100604.13;4468691;32;20412;-67
2022/06/12 08:21:10;;;;;;;2.92;2.70;;;;;;;30.14;40.79;100603.50;4468621;32;20093;-67
2022/06/12 08:23:43;;;;;;;2.62;2.42;;;;;;;30.79;39.89;100600.34;4470631;32;20108;-67
2022/06/12 08:26:13;;;;;;;4.25;2.20;;;;;;;31.02;39.61;100600.88;4470746;32;20111;-67
2022/06/12 08:28:51;;;;;;;8.15;2.28;;;;;;;30.22;41.70;100598.25;4470801;32;20132;-67
2022/06/12 08:31:22;;;;;;;4.90;2.08;;;;;;;30.51;41.12;100602.00;4456184;32;20088;-66
2022/06/12 08:33:52;;;;;;;2.20;2.10;;;;;;;31.02;40.68;100599.00;4470770;32;20089;-67
2022/06/12 08:36:20;;;;;;;3.10;2.28;;;;;;;30.23;39.67;100596.37;4470799;32;20153;-66
2022/06/12 08:38:48;;;;;;;1.98;1.77;;;;;;;30.11;39.85;100597.47;4470940;32;20220;-67
2022/06/12 08:41:41;;;;;;;2.28;1.90;;;;;;;30.81;39.47;100596.44;4470631;32;20180;-67
2022/06/12 08:44:50;;;;;;;3.03;1.95;;;;;;;30.60;39.41;100602.03;4470694;32;20787;-67
2022/06/12 08:47:28;;;;;;;3.33;1.92;;;;;;;31.16;39.59;100600.44;4470686;32;20088;-67
2022/06/12 08:50:04;;;;;;;2.53;1.98;;;;;;;31.26;39.39;100598.56;4470691;32;20138;-67
2022/06/12 08:52:46;;;;;;;2.20;2.00;;;;;;;31.17;38.76;100605.75;4456158;32;20471;-67
2022/06/12 08:55:43;;;;;;;3.15;2.05;;;;;;;31.34;38.95;100598.69;4470645;32;20436;-67
2022/06/12 08:58:21;;;;;;;2.00;1.90;;;;;;;30.67;39.42;100605.91;4470843;32;20088;-67
2022/06/12 09:00:48;;;;;;;5.18;2.30;;;;;;;30.55;40.11;100604.31;4470523;32;20100;-67
2022/06/12 09:03:19;;;;;;;2.55;2.33;;;;;;;31.06;39.22;100605.03;4470494;32;20116;-67
2022/06/12 09:06:08;;;;;;;2.80;1.92;;;;;;;31.12;37.71;100596.28;4470513;32;20485;-67
2022/06/12 09:08:45;;;;;;;3.90;2.37;;;;;;;31.33;38.82;100597.00;4470715;32;20113;-67
2022/06/12 09:11:29;;;;;;;2.17;1.98;;;;;;;31.70;38.71;100595.28;4470542;32;20506;-67
2022/06/12 09:14:07;;;;;;;3.03;1.75;;;;;;;32.23;36.53;100589.16;4470566;32;20153;-67
2022/06/12 09:16:55;;;;;;;4.18;2.15;;;;;;;31.43;37.04;100594.25;4470550;32;20073;-67
2022/06/12 09:19:45;;;;;;;2.10;2.00;;;;;;;31.52;38.95;100596.09;4470508;32;20408;-67
2022/06/12 09:22:40;;;;;;;4.43;2.10;;;;;;;31.38;38.36;100583.81;4470536;32;20521;-67
2022/06/12 09:25:07;;;;;;;7.12;1.92;;;;;;;32.11;37.90;100588.50;4470546;32;20124;-67
2022/06/12 09:27:47;;;;;;;2.40;2.17;;;;;;;32.09;37.55;100585.97;4470462;32;20130;-67
2022/06/12 09:30:20;;;;;;;1.90;1.80;;;;;;;32.09;37.13;100590.56;4470420;32;20092;-67
2022/06/12 09:33:20;;;;;;;3.55;2.28;;;;;;;31.92;37.87;100583.19;4470272;32;20096;-67
2022/06/12 09:36:13;;;;;;;4.32;2.33;;;;;;;31.94;37.40;100584.72;4455498;32;20112;-67
2022/06/12 09:38:51;;;;;;;1.92;1.80;;;;;;;32.35;37.11;100582.47;4470347;32;20076;-67
2022/06/12 09:41:35;;;;;;;3.78;2.30;;;;;;;32.87;36.60;100576.34;4470403;32;20654;-67
2022/06/12 09:44:11;;;;;;;2.97;1.90;;;;;;;32.69;36.70;100571.78;4470342;32;20119;-67
2022/06/12 09:46:42;;;;;;;5.78;2.20;;;;;;;33.13;37.18;100580.00;4470222;32;20084;-67
2022/06/12 09:49:28;;;;;;;2.15;2.05;;;;;;;33.15;35.22;100566.19;4470231;32;20483;-67
2022/06/12 09:52:09;;;;;;;5.22;2.22;;;;;;;33.30;35.94;100568.16;4470353;32;20080;-67
2022/06/12 09:54:52;;;;;;;2.12;2.00;;;;;;;33.55;35.72;100566.47;4470229;32;20092;-67
2022/06/12 09:57:22;;;;;;;2.40;2.22;;;;;;;32.67;35.84;100559.28;4470232;32;20108;-67
2022/06/12 09:59:55;;;;;;;5.00;2.05;;;;;;;31.97;37.14;100569.94;4470540;32;20085;-67
2022/06/12 10:02:35;;;;;;;5.12;2.20;;;;;;;32.69;37.15;100558.13;4470320;32;20080;-67
2022/06/12 10:05:15;;;;;;;2.67;2.47;;;;;;;33.52;35.42;100557.72;4470172;32;20229;-67
2022/06/12 10:07:48;;;;;;;6.00;2.00;;;;;;;33.53;35.54;100554.81;4470440;32;20463;-67
2022/06/12 10:10:23;;;;;;;2.62;2.20;;;;;;;33.21;35.18;100546.41;4470225;32;20076;-67
2022/06/12 10:13:02;;;;;;;2.60;2.40;;;;;;;33.78;35.37;100547.62;4470141;32;20110;-67
2022/06/12 10:15:40;;;;;;;4.32;2.17;;;;;;;34.55;35.67;100550.22;4470085;32;20597;-67
2022/06/12 10:18:15;;;;;;;5.65;1.90;;;;;;;35.07;34.40;100555.37;4470227;32;20096;-67
2022/06/12 10:20:44;;;;;;;;;;;;;;;35.26;32.82;100543.19;4470396;32;20461;-67
2022/06/12 10:23:12;;;;;;;4.93;2.12;;;;;;;35.87;32.29;100538.06;4470160;32;19976;-67
2022/06/12 10:25:46;;;;;;;3.83;2.30;;;;;;;35.39;33.28;100539.91;4469928;32;20172;-67
2022/06/12 10:28:16;;;;;;;7.57;2.25;;;;;;;35.34;32.34;100539.59;4470067;32;20171;-67
2022/06/12 10:30:47;;;;;;;3.03;2.33;;;;;;;34.25;33.29;100532.56;4469913;32;20095;-66
2022/06/12 10:33:14;;;;;;;2.58;2.35;;;;;;;33.71;34.03;100524.69;4470089;32;20400;-67
2022/06/12 10:35:50;;;;;;;4.95;2.47;;;;;;;33.49;34.74;100525.28;4469972;32;20093;-67
2022/06/12 10:38:20;;;;;;;2.50;2.30;;;;;;;33.21;34.90;100528.16;4470042;32;20601;-67
2022/06/12 10:40:51;;;;;;;2.20;2.10;;;;;;;34.12;33.86;100527.56;4455629;32;20108;-67
2022/06/12 10:43:43;;;;;;;3.83;2.35;;;;;;;34.76;33.39;100524.25;4470279;32;20168;-67
2022/06/12 10:46:18;;;;;;;4.22;1.90;;;;;;;34.16;34.01;100526.22;4468473;32;20450;-67
2022/06/12 10:49:04;;;;;;;3.25;2.05;;;;;;;33.40;34.63;100528.97;4469931;32;20093;-67
2022/06/12 10:51:34;;;;;;;2.40;1.92;;;;;;;33.68;34.77;100522.28;4469921;32;20072;-67
2022/06/12 10:54:23;;;;;;;3.03;2.05;;;;;;;34.23;34.51;100527.25;4469783;32;20094;-67
2022/06/12 10:57:24;;;;;;;3.12;2.03;;;;;;;35.41;33.27;100521.41;4469836;32;20452;-67
2022/06/12 11:00:04;;;;;;;2.55;2.35;;;;;;;33.86;34.58;100515.88;4470106;32;20100;-67
2022/06/12 11:02:42;;;;;;;3.83;2.03;;;;;;;33.48;35.12;100512.63;4469831;32;20459;-67
2022/06/12 11:05:42;;;;;;;3.33;2.10;;;;;;;34.08;34.10;100515.25;4470093;32;20076;-67
2022/06/12 11:08:27;;;;;;;2.75;2.15;;;;;;;34.46;33.77;100512.94;4433136;32;20123;-67
2022/06/12 11:11:06;;;;;;;2.00;1.90;;;;;;;35.17;32.72;100500.44;4469926;32;20159;-67
2022/06/12 11:14:11;;;;;;;2.87;2.03;;;;;;;34.83;32.35;100517.06;4469610;32;20399;-67
2022/06/12 11:16:48;;;;;;;2.25;1.77;;;;;;;35.23;31.50;100502.44;4469662;32;20088;-67
2022/06/12 11:19:33;;;;;;;2.40;2.20;;;;;;;35.04;33.83;100505.59;4469498;32;20081;-67
2022/06/12 11:22:36;;;;;;;4.72;2.35;;;;;;;34.88;33.50;100501.81;4469621;32;20138;-67
2022/06/12 11:25:19;;;;;;;4.40;2.17;;;;;;;34.69;34.22;100513.12;4466144;32;20080;-67
2022/06/12 11:28:00;;;;;;;2.20;2.00;;;;;;;34.72;33.90;100508.16;4469666;32;20076;-67
2022/06/12 11:30:46;;;;;;;2.37;2.08;;;;;;;35.90;32.51;100504.75;4469585;32;20137;-67
2022/06/12 11:33:23;;;;;;;2.45;1.85;;;;;;;36.96;31.57;100504.00;4469581;32;20148;-67
2022/06/12 11:35:50;;;;;;;2.40;2.20;;;;;;;37.43;30.10;100502.84;4469316;32;20122;-67
2022/06/12 11:38:39;;;;;;;2.33;2.12;;;;;;;36.83;30.47;100507.38;4469478;32;20146;-67
2022/06/12 11:41:18;;;;;;;3.05;2.22;;;;;;;36.75;30.11;100507.47;4469260;32;20100;-67
2022/06/12 11:44:04;;;;;;;2.62;1.85;;;;;;;36.37;30.89;100504.66;4469412;32;20169;-67
2022/06/12 11:46:34;;;;;;;2.08;1.75;;;;;;;37.39;30.28;100492.38;4469248;32;20103;-67
2022/06/12 11:49:05;;;;;;;5.57;1.80;;;;;;;39.60;28.01;100489.66;4469201;32;20119;-67
2022/06/12 11:51:53;;;;;;;2.12;1.83;;;;;;;41.24;27.98;100495.66;4469110;32;20749;-67
2022/06/12 11:54:39;;;;;;;1.80;1.70;;;;;;;40.72;26.62;100491.88;4469065;32;20453;-67
2022/06/12 11:57:25;;;;;;;1.70;1.67;;;;;;;39.86;26.59;100489.78;4469667;32;20462;-67
2022/06/12 12:00:12;;;;;;;2.62;1.92;;;;;;;39.90;27.68;100488.31;4471275;32;20473;-68
2022/06/12 12:03:18;;;;;;;4.10;2.00;;;;;;;41.14;26.36;100483.34;4471166;32;20167;-68
2022/06/12 12:06:06;;;;;;;2.60;2.00;;;;;;;39.40;27.18;100487.66;4471053;32;20372;-67
2022/06/12 12:09:12;;;;;;;2.05;1.95;;;;;;;37.04;30.23;100479.22;4470980;32;20072;-67
2022/06/12 12:11:46;;;;;;;2.80;1.77;;;;;;;38.21;29.61;100483.91;4471020;32;20089;-67
2022/06/12 12:14:21;;;;;;;1.87;1.77;;;;;;;40.05;28.46;100477.09;4471218;32;20081;-68
2022/06/12 12:16:55;;;;;;;1.95;1.73;;;;;;;39.64;27.11;100464.19;4470950;32;20099;-67